Bluntzer, Texas
Current Conditions -  °F | °C
As of 10:15 AM on Wednesday 26 Nov 2014 (Local Time) from KRBO Reporting Station
Heavy Rain Heavy Rain  
Wind Chill: 62°   Ceiling: Unl
Heat Index: 62°   Visibility: 10mi
Dew Point: 41°   Wind: 13mph
Humidity: 45%   Direction: 210°SSW
Pressure: 30.31"   Gusts: NA
Location:  27.7757°N, 97.7554°W
Report Text: KRBO 261615Z AUTO 21011KT 10SM +RA CLR 17/05 A3031 RMK AO2 T01690048
Loading
Personal Weather Stations






























Interactive Weather Map New forecast layout! Learn more

10-Day Weather Forecast

Advertisements
Track Severe Weather on mobile